Time;durP1;ratioP1;P1;durP2;ratioP2;P2;SDS_P1;SDS_P2;PMS_P1;PMS_P2;Temp;Humidity;BMP_temperature;BMP_pressure;BME280_temperature;BME280_humidity;BME280_pressure;Samples;Min_cycle;Max_cycle;Signal;HPM_P1;HPM_P2
2022/05/21 00:01:05;;;;;;;6.00;5.00;;;;;;;14.80;100.00;100605.28;1771558;81;21006;-90
2022/05/21 00:03:32;;;;;;;6.47;5.10;;;;;;;14.78;100.00;100603.78;1771680;81;21064;-89
2022/05/21 00:06:00;;;;;;;6.45;4.85;;;;;;;14.74;100.00;100598.00;1771387;81;21539;-89
2022/05/21 00:08:27;;;;;;;5.33;4.50;;;;;;;14.70;100.00;100592.72;1771505;81;21121;-88
2022/05/21 00:10:54;;;;;;;5.37;4.40;;;;;;;14.66;100.00;100591.34;1771621;81;21042;-90
2022/05/21 00:13:21;;;;;;;6.75;4.85;;;;;;;14.62;100.00;100588.64;1771622;81;21070;-89
2022/05/21 00:15:49;;;;;;;6.22;4.25;;;;;;;14.59;100.00;100588.42;1771615;81;21827;-89
2022/05/21 00:18:16;;;;;;;5.60;4.12;;;;;;;14.55;100.00;100586.22;1771459;81;20995;-91
2022/05/21 00:20:47;;;;;;;5.78;4.17;;;;;;;14.50;100.00;100583.56;1771559;81;21089;-91
2022/05/21 00:23:24;;;;;;;6.28;3.90;;;;;;;14.49;100.00;100592.88;1771491;81;21038;-90
2022/05/21 00:25:59;;;;;;;9.20;4.37;;;;;;;14.48;100.00;100592.53;1771677;81;21109;-91
2022/05/21 00:28:27;;;;;;;5.12;4.20;;;;;;;14.47;100.00;100590.88;1769018;81;21915;-89
2022/05/21 00:30:56;;;;;;;7.78;4.75;;;;;;;14.44;100.00;100581.52;1771458;81;21886;-90
2022/05/21 00:33:25;;;;;;;6.97;4.40;;;;;;;14.42;100.00;100583.44;1771878;81;21006;-92
2022/05/21 00:35:53;;;;;;;6.50;4.10;;;;;;;14.43;100.00;100583.78;1771454;81;21038;-90
2022/05/21 00:38:21;;;;;;;4.65;4.08;;;;;;;14.46;100.00;100586.60;1771462;81;21006;-89
2022/05/21 00:40:50;;;;;;;4.90;4.05;;;;;;;14.45;100.00;100566.14;1736754;81;21143;-89
2022/05/21 00:43:47;;;;;;;7.13;4.10;;;;;;;14.47;100.00;100563.38;1771709;81;21038;-91
2022/05/21 00:46:20;;;;;;;4.90;4.17;;;;;;;14.47;100.00;100563.38;1739750;81;21575;-89
2022/05/21 00:49:08;;;;;;;7.12;4.45;;;;;;;14.45;100.00;100556.97;1768362;81;20992;-91
2022/05/21 00:52:02;;;;;;;6.35;4.08;;;;;;;14.46;100.00;100549.92;1771602;81;21312;-89
2022/05/21 00:54:35;;;;;;;4.85;4.03;;;;;;;14.44;100.00;100543.53;1768131;81;21335;-92
2022/05/21 00:57:23;;;;;;;6.70;3.90;;;;;;;14.43;100.00;100532.70;1772443;80;21023;-89
2022/05/21 01:00:00;;;;;;;7.95;4.42;;;;;;;14.41;100.00;100529.39;1774900;80;21065;-89
2022/05/21 01:02:41;;;;;;;5.40;4.00;;;;;;;14.41;100.00;100526.77;1772819;80;21509;-89
2022/05/21 01:05:12;;;;;;;6.45;3.80;;;;;;;14.41;100.00;100517.61;1772831;80;21015;-90
2022/05/21 01:07:42;;;;;;;7.00;4.10;;;;;;;14.44;100.00;100521.73;1771647;80;21156;-90
2022/05/21 01:10:14;;;;;;;5.47;3.83;;;;;;;14.43;100.00;100517.45;1774656;80;20987;-89
2022/05/21 01:12:48;;;;;;;7.85;3.83;;;;;;;14.44;100.00;100512.09;1775090;80;21034;-90
2022/05/21 01:15:20;;;;;;;6.17;3.87;;;;;;;14.44;100.00;100504.23;1772647;80;21065;-91
2022/05/21 01:17:47;;;;;;;6.00;3.90;;;;;;;14.45;100.00;100491.95;1774596;80;21595;-91
2022/05/21 01:20:20;;;;;;;6.78;4.00;;;;;;;14.45;100.00;100482.78;1775161;80;21255;-91
2022/05/21 01:23:08;;;;;;;6.30;4.25;;;;;;;14.43;100.00;100474.23;1771440;80;21062;-91
2022/05/21 01:25:38;;;;;;;4.53;4.08;;;;;;;14.40;100.00;100467.48;1775449;80;20995;-89
2022/05/21 01:28:13;;;;;;;5.65;4.10;;;;;;;14.36;100.00;100460.91;1774867;80;21003;-90
2022/05/21 01:30:53;;;;;;;9.53;4.75;;;;;;;14.32;100.00;100462.98;1775303;80;21555;-89
2022/05/21 01:33:29;;;;;;;7.90;4.92;;;;;;;14.31;100.00;100463.11;1749178;80;21161;-90
2022/05/21 01:35:58;;;;;;;6.85;4.08;;;;;;;14.28;100.00;100460.80;1748911;80;21085;-91
2022/05/21 01:38:28;;;;;;;6.83;4.42;;;;;;;14.26;100.00;100458.80;1775004;80;21054;-92
2022/05/21 01:40:57;;;;;;;;;;;;;;;14.25;100.00;100454.52;1777684;80;21081;-89
2022/05/21 01:46:14;;;;;;;5.58;4.45;;;;;;;14.18;100.00;100445.94;1775110;80;21164;-91
2022/05/21 01:48:43;;;;;;;6.08;4.47;;;;;;;14.15;100.00;100446.21;1775010;80;21018;-91
2022/05/21 01:51:11;;;;;;;7.53;4.50;;;;;;;14.14;100.00;100440.63;1774968;80;21080;-90
2022/05/21 01:53:40;;;;;;;8.05;4.70;;;;;;;14.13;100.00;100435.08;1774716;80;21065;-91
2022/05/21 01:56:09;;;;;;;7.83;4.85;;;;;;;14.12;100.00;100432.11;1775280;80;21002;-91
2022/05/21 01:58:38;;;;;;;8.63;5.00;;;;;;;14.12;100.00;100432.11;1772458;79;21246;-92
2022/05/21 02:01:09;;;;;;;6.85;5.20;;;;;;;14.12;100.00;100423.42;1771468;81;21011;-90
2022/05/21 02:03:36;;;;;;;7.43;4.83;;;;;;;14.11;100.00;100423.07;1771842;81;21576;-88
2022/05/21 02:06:04;;;;;;;6.72;5.05;;;;;;;14.10;100.00;100415.71;1771759;81;21026;-90
2022/05/21 02:08:32;;;;;;;6.85;4.90;;;;;;;14.13;100.00;100414.13;1771640;81;21149;-89
2022/05/21 02:10:59;;;;;;;6.12;4.58;;;;;;;14.13;100.00;100410.20;1771451;81;21157;-88
2022/05/21 02:13:31;;;;;;;8.33;4.78;;;;;;;14.12;100.00;100404.62;1771552;81;21002;-88
2022/05/21 02:16:00;;;;;;;6.17;4.85;;;;;;;14.12;100.00;100410.33;1771790;81;21054;-88
2022/05/21 02:18:27;;;;;;;10.20;5.17;;;;;;;14.12;100.00;100412.94;1771473;81;21551;-89
2022/05/21 02:20:54;;;;;;;7.22;5.08;;;;;;;14.12;100.00;100402.00;1771975;81;21529;-89
2022/05/21 02:23:23;;;;;;;7.83;5.33;;;;;;;14.11;100.00;100405.59;1771698;81;21202;-88
2022/05/21 02:25:51;;;;;;;7.30;5.30;;;;;;;14.11;100.00;100406.89;1771827;81;21038;-89
2022/05/21 02:28:18;;;;;;;11.22;5.30;;;;;;;14.13;100.00;100410.20;1743733;81;21069;-89
2022/05/21 02:30:46;;;;;;;10.90;5.22;;;;;;;14.13;100.00;100415.44;1771950;81;21614;-89
2022/05/21 02:33:13;;;;;;;6.53;4.97;;;;;;;14.12;100.00;100415.09;1771339;81;21109;-89
2022/05/21 02:35:40;;;;;;;5.70;4.70;;;;;;;14.11;100.00;100410.82;1771625;81;21132;-91
2022/05/21 02:40:55;;;;;;;6.03;4.47;;;;;;;14.09;100.00;100411.44;1771596;81;21022;-92
2022/05/21 02:43:22;;;;;;;9.15;4.70;;;;;;;14.09;100.00;100408.82;1771489;81;21003;-92
2022/05/21 02:45:50;;;;;;;8.48;4.62;;;;;;;14.10;100.00;100405.73;1771430;81;21021;-92
2022/05/21 02:48:17;;;;;;;7.47;4.78;;;;;;;14.13;100.00;100407.59;1772095;81;21201;-90
2022/05/21 02:50:45;;;;;;;7.60;4.75;;;;;;;14.14;100.00;100411.83;1771767;81;21042;-90
2022/05/21 02:53:18;;;;;;;6.33;4.45;;;;;;;14.17;100.00;100412.05;1772015;81;21035;-91
2022/05/21 02:55:47;;;;;;;6.67;4.37;;;;;;;14.20;100.00;100409.97;1737147;81;21544;-90
2022/05/21 02:58:16;;;;;;;8.85;5.42;;;;;;;14.26;100.00;100409.03;1770956;80;21112;-93
2022/05/21 03:00:45;;;;;;;9.25;4.28;;;;;;;14.29;100.00;100404.34;1771944;81;21837;-89
2022/05/21 03:03:12;;;;;;;6.83;4.85;;;;;;;14.31;100.00;100403.71;1771450;81;21534;-92
2022/05/21 03:05:41;;;;;;;6.83;4.25;;;;;;;14.35;100.00;100405.55;1771485;81;21051;-92
2022/05/21 03:10:57;;;;;;;6.80;4.17;;;;;;;14.45;100.00;100402.87;1771607;81;21547;-91
2022/05/21 03:13:26;;;;;;;6.85;4.08;;;;;;;14.51;100.00;100405.75;1771573;81;21694;-91
2022/05/21 03:15:56;;;;;;;5.83;4.10;;;;;;;14.57;100.00;100396.95;1771336;81;21038;-91
2022/05/21 03:18:23;;;;;;;6.58;4.28;;;;;;;14.62;100.00;100394.73;1771426;81;21041;-92
2022/05/21 03:20:51;;;;;;;5.42;4.00;;;;;;;14.66;100.00;100387.75;1771798;81;21983;-91
2022/05/21 03:23:19;;;;;;;8.98;4.40;;;;;;;14.70;100.00;100385.69;1771720;81;21046;-92
2022/05/21 03:25:46;;;;;;;5.45;3.83;;;;;;;14.75;100.00;100378.19;1771720;81;21785;-94
2022/05/21 03:28:16;;;;;;;5.17;4.10;;;;;;;14.79;100.00;100382.15;1771642;81;21014;-92
2022/05/21 03:30:43;;;;;;;9.73;4.37;;;;;;;14.81;100.00;100384.14;1771344;81;21097;-91
2022/05/21 03:33:11;;;;;;;9.70;4.95;;;;;;;14.86;100.00;100382.39;1771270;81;21089;-88
2022/05/21 03:35:41;;;;;;;5.78;4.00;;;;;;;14.88;100.00;100380.45;1771609;81;21070;-91
2022/05/21 03:38:10;;;;;;;6.90;4.60;;;;;;;14.89;100.00;100378.17;1771861;81;21266;-90
2022/05/21 03:40:38;;;;;;;6.72;4.28;;;;;;;14.90;100.00;100381.10;1771744;81;21078;-91
2022/05/21 03:43:05;;;;;;;7.15;4.03;;;;;;;14.91;100.00;100375.39;1771836;81;21003;-91
2022/05/21 03:45:32;;;;;;;8.05;4.28;;;;;;;14.91;100.00;100379.33;1771622;81;21027;-90
2022/05/21 03:47:59;;;;;;;7.35;4.08;;;;;;;14.93;100.00;100385.25;1771980;81;21007;-91
2022/05/21 03:50:31;;;;;;;6.83;4.30;;;;;;;14.95;100.00;100388.05;1771584;81;21151;-91
2022/05/21 03:52:57;;;;;;;4.33;3.73;;;;;;;14.98;100.00;100385.61;1767496;81;21097;-89
2022/05/21 03:55:24;;;;;;;8.48;3.70;;;;;;;14.98;100.00;100375.13;1771649;81;21457;-90
2022/05/21 03:57:51;;;;;;;7.45;4.22;;;;;;;14.99;100.00;100372.84;1772083;80;21200;-90
2022/05/21 04:00:21;;;;;;;5.87;4.05;;;;;;;15.03;100.00;100374.68;1774615;80;20986;-92
2022/05/21 04:02:49;;;;;;;5.55;3.85;;;;;;;15.10;100.00;100380.47;1775075;80;22374;-91
2022/05/21 04:05:16;;;;;;;6.15;3.47;;;;;;;15.18;100.00;100384.16;1774707;80;20979;-90
2022/05/21 04:07:44;;;;;;;7.53;4.28;;;;;;;15.26;100.00;100380.30;1775007;80;20994;-90
2022/05/21 04:10:15;;;;;;;7.70;4.12;;;;;;;15.35;100.00;100373.30;1774900;80;22019;-91
2022/05/21 04:12:42;;;;;;;5.25;4.17;;;;;;;15.45;100.00;100376.66;1775177;80;21074;-91
2022/05/21 04:15:11;;;;;;;9.33;3.90;;;;;;;15.53;100.00;100375.41;1775088;80;21076;-90
2022/05/21 04:17:40;;;;;;;13.43;3.87;;;;;;;15.59;100.00;100376.09;1774523;80;21062;-93
2022/05/21 04:20:11;;;;;;;15.83;4.40;;;;;;;15.68;100.00;100366.97;1748905;80;21594;-91
2022/05/21 04:22:39;;;;;;;4.75;3.55;;;;;;;15.74;100.00;100365.84;1774792;80;21085;-89
2022/05/21 04:25:08;;;;;;;5.67;3.90;;;;;;;15.84;100.00;100363.63;1774879;80;21013;-91
2022/05/21 04:27:38;;;;;;;9.08;4.60;;;;;;;15.92;100.00;100365.82;1774561;80;21853;-89
2022/05/21 04:30:09;;;;;;;7.45;4.35;;;;;;;16.03;100.00;100367.82;1774673;80;20969;-90
2022/05/21 04:32:39;;;;;;;;;;;;;;;16.13;100.00;100361.16;1777671;80;21089;-92
2022/05/21 04:35:08;;;;;;;11.22;5.42;;;;;;;16.25;100.00;100362.50;1774619;80;20430;-89
2022/05/21 04:37:37;;;;;;;10.60;6.15;;;;;;;16.35;100.00;100357.95;1774812;80;21018;-90
2022/05/21 04:40:10;;;;;;;12.03;6.47;;;;;;;16.45;100.00;100360.94;1774581;80;20972;-90
2022/05/21 04:42:38;;;;;;;11.43;7.05;;;;;;;16.53;100.00;100355.70;1784626;80;21487;-92
2022/05/21 04:45:07;;;;;;;16.12;8.08;;;;;;;16.63;100.00;100348.98;1785027;80;21021;-91
2022/05/21 04:47:35;;;;;;;11.50;7.65;;;;;;;16.74;100.00;100350.00;1784483;80;21574;-90
2022/05/21 04:50:04;;;;;;;26.95;9.03;;;;;;;16.86;100.00;100342.61;1783993;80;21088;-90
2022/05/21 04:52:32;;;;;;;16.82;7.90;;;;;;;16.99;100.00;100337.71;1766777;81;39778;-89
2022/05/21 04:55:06;;;;;;;15.03;8.90;;;;;;;17.09;100.00;100334.91;1779642;80;21076;-89
2022/05/21 04:57:35;;;;;;;18.10;8.68;;;;;;;17.16;100.00;100325.88;1767242;81;21056;-90
2022/05/21 05:00:06;;;;;;;13.43;8.10;;;;;;;17.23;100.00;100319.43;1754168;81;21033;-90
2022/05/21 05:02:34;;;;;;;15.38;9.93;;;;;;;17.29;100.00;100322.23;1754457;81;21618;-90
2022/05/21 05:05:02;;;;;;;16.57;10.48;;;;;;;17.40;100.00;100327.64;1753204;81;21140;-90
2022/05/21 05:07:30;;;;;;;19.60;10.38;;;;;;;17.46;100.00;100326.98;1753284;81;21077;-90
2022/05/21 05:09:57;;;;;;;17.62;9.85;;;;;;;17.50;100.00;100327.47;1785931;80;21100;-91
2022/05/21 05:12:25;;;;;;;19.92;10.95;;;;;;;17.55;100.00;100330.41;1755357;80;21043;-90
2022/05/21 05:14:53;;;;;;;17.95;10.80;;;;;;;17.61;100.00;100320.52;1790248;80;21029;-90
2022/05/21 05:17:22;;;;;;;21.40;11.65;;;;;;;17.75;100.00;100327.38;1789330;79;21172;-92
2022/05/21 05:19:49;;;;;;;18.12;10.53;;;;;;;17.88;100.00;100326.37;1789289;80;21072;-89
2022/05/21 05:22:16;;;;;;;18.65;8.75;;;;;;;18.06;100.00;100326.67;1789677;80;21053;-90
2022/05/21 05:24:43;;;;;;;15.75;8.03;;;;;;;18.28;100.00;100326.38;1757735;81;21029;-90
2022/05/21 05:27:11;;;;;;;9.25;6.37;;;;;;;18.55;100.00;100330.84;1758461;81;22074;-90
2022/05/21 05:29:38;;;;;;;19.23;7.62;;;;;;;18.79;100.00;100332.47;1758004;81;21232;-90
2022/05/21 05:32:07;;;;;;;10.38;6.75;;;;;;;18.91;100.00;100330.23;1758467;81;21056;-90
2022/05/21 05:34:34;;;;;;;13.40;7.50;;;;;;;18.96;100.00;100323.14;1758081;81;21131;-90
2022/05/21 05:37:02;;;;;;;12.75;6.10;;;;;;;19.05;100.00;100319.44;1758533;81;21081;-91
2022/05/21 05:39:29;;;;;;;13.75;6.12;;;;;;;19.21;100.00;100313.21;1761628;80;21118;-90
2022/05/21 05:41:56;;;;;;;6.10;5.30;;;;;;;19.38;100.00;100304.62;1792038;80;21898;-91
2022/05/21 05:44:23;;;;;;;7.87;5.45;;;;;;;19.47;100.00;100303.54;1792842;80;21603;-89
2022/05/21 05:46:50;;;;;;;7.58;6.05;;;;;;;19.44;100.00;100305.20;1776677;80;21634;-90
2022/05/21 05:49:17;;;;;;;7.87;5.87;;;;;;;19.36;100.00;100298.69;1762053;81;21508;-90
2022/05/21 05:51:44;;;;;;;8.95;5.65;;;;;;;19.26;100.00;100304.76;1783791;80;20961;-90
2022/05/21 05:54:11;;;;;;;7.37;4.70;;;;;;;19.23;100.00;100303.27;1792119;80;21440;-90
2022/05/21 05:56:44;;;;;;;11.55;5.08;;;;;;;19.30;100.00;100306.02;1793500;80;21809;-90
2022/05/21 06:02:57;;;;;;;13.40;5.28;;;;;;;19.58;100.00;100301.45;1720710;81;21557;-90
2022/05/21 06:04:21;;;;;;;9.23;5.30;;;;;;;19.69;100.00;100299.66;1747876;81;21082;-91
2022/05/21 06:06:48;;;;;;;12.13;5.58;;;;;;;19.74;100.00;100292.51;1772676;80;21142;-89
2022/05/21 06:09:15;;;;;;;8.08;5.05;;;;;;;19.76;100.00;100297.11;1784566;80;21541;-89
2022/05/21 06:11:45;;;;;;;9.25;6.08;;;;;;;19.88;100.00;100294.86;1780596;80;21084;-89
2022/05/21 06:14:12;;;;;;;8.53;5.30;;;;;;;20.01;100.00;100290.55;1763309;80;21116;-89
2022/05/21 06:16:39;;;;;;;9.20;4.95;;;;;;;20.09;100.00;100288.29;1784201;80;21096;-89
2022/05/21 06:19:08;;;;;;;7.10;4.78;;;;;;;20.17;100.00;100284.21;1767706;81;21821;-90
2022/05/21 06:21:36;;;;;;;5.53;4.37;;;;;;;20.27;100.00;100278.62;1784760;80;21058;-91
2022/05/21 06:24:03;;;;;;;9.68;5.17;;;;;;;20.40;100.00;100270.52;1784793;80;21004;-89
2022/05/21 06:26:31;;;;;;;13.68;6.05;;;;;;;20.51;100.00;100266.55;1784796;80;21043;-90
2022/05/21 06:28:59;;;;;;;7.47;5.05;;;;;;;20.65;100.00;100267.81;1782186;79;21042;-89
2022/05/21 06:31:26;;;;;;;7.30;4.72;;;;;;;20.76;99.57;100260.38;1784750;80;21298;-90
2022/05/21 06:33:53;;;;;;;8.18;5.33;;;;;;;20.83;100.00;100265.22;1784660;80;21474;-89
2022/05/21 06:36:22;;;;;;;6.95;4.67;;;;;;;20.91;100.00;100253.69;1784697;80;21007;-88
2022/05/21 06:38:52;;;;;;;8.35;4.37;;;;;;;21.06;94.61;100251.75;1784122;80;21580;-88
2022/05/21 06:41:19;;;;;;;10.80;5.33;;;;;;;21.22;93.87;100249.81;1784835;80;21020;-89
2022/05/21 06:43:46;;;;;;;7.87;5.15;;;;;;;21.38;92.71;100252.15;1784704;80;21153;-89
2022/05/21 06:46:13;;;;;;;9.68;5.25;;;;;;;21.43;88.02;100245.75;1784720;80;21662;-89
2022/05/21 06:48:42;;;;;;;10.58;5.80;;;;;;;21.40;85.88;100239.54;1784806;80;21035;-90
2022/05/21 06:51:09;;;;;;;9.45;5.50;;;;;;;21.33;90.47;100237.85;1784841;80;21588;-89
2022/05/21 06:53:37;;;;;;;16.57;6.35;;;;;;;21.28;91.16;100231.33;1784997;80;21063;-90
2022/05/21 06:56:12;;;;;;;13.38;6.03;;;;;;;21.33;94.53;100231.23;1756065;80;21804;-90
2022/05/21 06:58:39;;;;;;;8.73;6.00;;;;;;;21.43;94.50;100223.76;1784788;80;20916;-90
2022/05/21 07:01:07;;;;;;;10.05;5.62;;;;;;;21.57;92.05;100221.99;1784605;80;21039;-90
2022/05/21 07:03:34;;;;;;;10.65;6.03;;;;;;;21.71;94.15;100223.70;1784715;80;21016;-90
2022/05/21 07:08:49;;;;;;;12.85;5.37;;;;;;;22.02;90.22;100216.25;1784914;80;21881;-91
2022/05/21 07:11:16;;;;;;;9.50;5.65;;;;;;;22.13;90.28;100216.17;1784766;80;21559;-89
2022/05/21 07:13:45;;;;;;;14.95;6.80;;;;;;;22.22;88.74;100212.31;1785022;80;22188;-90
2022/05/21 07:16:12;;;;;;;11.57;6.37;;;;;;;22.33;85.65;100208.24;1784789;80;21059;-89
2022/05/21 07:18:39;;;;;;;11.80;5.87;;;;;;;22.42;84.83;100212.85;1784376;80;21042;-90
2022/05/21 07:21:10;;;;;;;21.33;5.97;;;;;;;22.46;86.51;100220.20;1784546;80;22190;-91
2022/05/21 07:23:36;;;;;;;17.00;5.62;;;;;;;22.54;87.41;100216.55;1780502;80;21059;-89
2022/05/21 07:26:03;;;;;;;15.88;6.17;;;;;;;22.66;85.87;100206.94;1784839;80;21477;-90
2022/05/21 07:28:30;;;;;;;9.83;5.40;;;;;;;22.78;84.39;100205.80;1784384;80;21047;-90
2022/05/21 07:30:57;;;;;;;8.93;5.00;;;;;;;22.86;82.02;100200.80;1784961;80;21596;-89
2022/05/21 07:33:25;;;;;;;7.58;4.83;;;;;;;22.88;83.98;100196.61;1784751;80;21125;-89
2022/05/21 07:35:52;;;;;;;9.58;4.97;;;;;;;22.88;82.83;100196.08;1784802;80;21003;-89
2022/05/21 07:38:20;;;;;;;10.82;5.12;;;;;;;22.89;79.76;100198.24;1784713;80;21533;-89
2022/05/21 07:40:51;;;;;;;11.15;5.10;;;;;;;22.87;80.82;100187.84;1784969;80;20991;-89
2022/05/21 07:43:27;;;;;;;7.97;4.60;;;;;;;22.87;82.32;100188.33;1784731;80;21066;-88
2022/05/21 07:45:55;;;;;;;7.25;4.70;;;;;;;22.86;81.73;100187.53;1784967;80;21220;-89
2022/05/21 07:48:22;;;;;;;7.15;4.40;;;;;;;22.83;80.85;100181.30;1784506;80;21154;-88
2022/05/21 07:50:54;;;;;;;6.80;4.20;;;;;;;22.78;80.31;100175.81;1784612;80;21588;-88
2022/05/21 07:53:29;;;;;;;8.28;3.55;;;;;;;22.79;82.37;100173.46;1784729;80;21058;-88
2022/05/21 07:55:57;;;;;;;5.12;3.70;;;;;;;22.77;78.90;100172.84;1782151;80;21083;-89
2022/05/21 07:58:28;;;;;;;6.08;3.77;;;;;;;22.75;81.71;100174.39;1784909;80;21140;-90
2022/05/21 08:00:56;;;;;;;4.90;3.60;;;;;;;22.77;80.74;100168.86;1791197;80;21659;-89
2022/05/21 08:03:24;;;;;;;6.35;3.85;;;;;;;22.79;83.71;100164.97;1793194;80;21046;-89
2022/05/21 08:06:05;;;;;;;7.90;3.75;;;;;;;22.83;81.37;100168.83;1789648;80;21074;-89
2022/05/21 08:08:34;;;;;;;7.35;3.90;;;;;;;22.88;82.14;100166.89;1785870;80;21058;-90
2022/05/21 08:11:03;;;;;;;5.83;3.62;;;;;;;22.97;85.79;100160.33;1790358;78;21267;-90
2022/05/21 08:13:39;;;;;;;5.30;3.95;;;;;;;23.09;85.61;100155.19;1787183;78;21010;-89
2022/05/21 08:16:09;;;;;;;8.60;4.35;;;;;;;23.22;84.75;100155.69;1784887;80;21425;-90
2022/05/21 08:18:37;;;;;;;6.60;4.60;;;;;;;23.37;86.35;100155.44;1764039;80;21050;-88
2022/05/21 08:21:05;;;;;;;6.85;3.92;;;;;;;23.52;85.60;100152.48;1792844;80;21073;-88
2022/05/21 08:29:07;;;;;;;5.53;4.22;;;;;;;24.06;83.68;100142.90;1793006;80;21033;-87
2022/05/21 08:31:35;;;;;;;7.80;3.65;;;;;;;24.25;84.38;100141.11;1791831;79;21124;-90
2022/05/21 08:34:02;;;;;;;17.95;4.50;;;;;;;24.39;80.35;100142.61;1763836;80;21145;-89
2022/05/21 08:36:30;;;;;;;7.83;4.10;;;;;;;24.48;79.46;100141.01;1788965;80;21164;-89
2022/05/21 08:38:57;;;;;;;6.33;4.10;;;;;;;24.54;83.56;100135.63;1791305;80;21593;-88
2022/05/21 08:41:30;;;;;;;6.03;3.25;;;;;;;24.54;75.65;100132.14;1757558;80;21515;-89
2022/05/21 08:44:05;;;;;;;7.90;3.85;;;;;;;24.51;74.26;100141.38;1736017;81;21013;-88
2022/05/21 08:46:47;;;;;;;6.78;4.00;;;;;;;24.48;73.49;100143.67;1737199;82;21056;-88
2022/05/21 08:49:41;;;;;;;7.25;4.37;;;;;;;24.44;72.23;100137.17;1754290;81;21209;-89
2022/05/21 08:52:20;;;;;;;5.03;4.30;;;;;;;24.40;72.34;100137.59;1783759;80;21281;-88
2022/05/21 08:54:50;;;;;;;5.35;3.90;;;;;;;24.41;72.39;100143.22;1787103;80;21041;-88
2022/05/21 08:57:48;;;;;;;9.83;4.35;;;;;;;24.45;75.13;100136.94;1758270;81;21053;-89
2022/05/21 09:00:33;;;;;;;8.55;4.42;;;;;;;24.54;75.56;100130.81;1783159;80;21924;-88
2022/05/21 09:03:03;;;;;;;6.92;4.30;;;;;;;24.72;79.39;100124.21;1740686;82;21167;-88
2022/05/21 09:05:31;;;;;;;4.87;3.58;;;;;;;24.90;78.80;100118.59;1751829;81;21004;-88
2022/05/21 09:08:18;;;;;;;6.35;4.00;;;;;;;25.07;75.83;100116.14;1737607;80;21022;-89
2022/05/21 09:11:03;;;;;;;5.30;3.52;;;;;;;25.16;74.75;100112.63;1751563;81;21457;-89
2022/05/21 09:13:52;;;;;;;5.28;4.00;;;;;;;25.26;74.54;100110.26;1767963;81;21058;-87
2022/05/21 09:19:08;;;;;;;6.37;4.30;;;;;;;25.47;74.33;100111.65;1776757;80;20994;-89
2022/05/21 09:21:46;;;;;;;10.70;5.08;;;;;;;25.64;75.06;100104.34;1778915;80;21571;-89
2022/05/21 09:24:51;;;;;;;5.83;4.03;;;;;;;25.67;70.38;100106.56;1779117;80;21112;-88
2022/05/21 09:27:36;;;;;;;6.58;4.45;;;;;;;25.54;72.83;100102.73;1772340;80;21503;-89
2022/05/21 09:30:24;;;;;;;6.75;4.25;;;;;;;25.53;73.12;100102.44;1748987;80;21187;-88
2022/05/21 09:33:19;;;;;;;7.85;3.75;;;;;;;25.56;73.99;100103.33;1778766;80;21037;-88
2022/05/21 09:35:57;;;;;;;11.18;4.58;;;;;;;25.58;72.82;100101.26;1779114;80;21068;-88
2022/05/21 09:38:31;;;;;;;4.87;3.67;;;;;;;25.63;69.99;100102.21;1778758;80;21029;-88
2022/05/21 09:41:14;;;;;;;10.28;4.17;;;;;;;25.66;71.85;100099.07;1774296;80;21050;-88
2022/05/21 09:46:41;;;;;;;9.23;4.67;;;;;;;25.54;68.72;100085.41;1773843;80;21107;-89
2022/05/21 09:49:31;;;;;;;10.13;4.30;;;;;;;25.53;69.53;100083.28;1746416;82;21006;-88
2022/05/21 09:52:03;;;;;;;5.17;3.90;;;;;;;25.59;72.11;100080.23;1756781;81;21054;-89
2022/05/21 09:54:40;;;;;;;6.83;4.45;;;;;;;25.78;75.78;100071.09;1778639;80;21035;-90
2022/05/21 09:57:23;;;;;;;10.00;4.97;;;;;;;26.02;72.77;100073.79;1778551;80;21993;-90
2022/05/21 10:00:30;;;;;;;7.58;5.03;;;;;;;26.11;67.00;100071.11;1776896;80;21118;-88
2022/05/21 10:03:05;;;;;;;7.08;5.20;;;;;;;26.09;68.29;100068.38;1773806;79;21049;-90
2022/05/21 10:05:43;;;;;;;6.00;5.22;;;;;;;26.03;70.52;100063.41;1774209;80;21075;-88
2022/05/21 10:11:44;;;;;;;8.28;4.92;;;;;;;25.82;66.50;100057.61;1753429;81;21490;-88
2022/05/21 10:14:50;;;;;;;6.20;5.25;;;;;;;25.87;68.32;100060.09;1753704;81;21474;-88
2022/05/21 10:17:32;;;;;;;9.25;5.62;;;;;;;26.01;69.70;100066.83;1753394;81;21039;-90
2022/05/21 10:20:39;;;;;;;6.33;5.70;;;;;;;26.20;72.16;100054.75;1752887;81;21078;-88
2022/05/21 10:23:37;;;;;;;10.15;6.22;;;;;;;26.47;73.33;100048.93;1758680;80;21608;-87
2022/05/21 10:26:09;;;;;;;10.30;5.87;;;;;;;26.74;66.59;100051.34;1782402;80;21247;-88
2022/05/21 10:29:20;;;;;;;8.93;5.92;;;;;;;26.91;68.55;100051.97;1780466;80;21011;-88
2022/05/21 10:32:17;;;;;;;6.55;5.83;;;;;;;27.02;63.72;100049.79;1784940;80;21000;-88
2022/05/21 10:35:03;;;;;;;7.15;5.92;;;;;;;27.01;66.33;100044.16;1785008;80;21011;-89
2022/05/21 10:37:53;;;;;;;9.65;6.37;;;;;;;26.93;63.93;100039.20;1779382;80;21573;-89
2022/05/21 10:40:35;;;;;;;9.10;5.87;;;;;;;26.82;66.49;100038.70;1784430;80;21142;-88
2022/05/21 10:43:18;;;;;;;7.85;5.95;;;;;;;26.66;64.23;100033.03;1784846;80;21000;-88
2022/05/21 10:46:18;;;;;;;9.93;6.55;;;;;;;26.65;66.83;100027.40;1779032;79;21015;-88
2022/05/21 10:48:58;;;;;;;7.00;6.30;;;;;;;26.75;69.36;100031.61;1777720;80;21063;-88
2022/05/21 10:51:40;;;;;;;7.23;6.53;;;;;;;26.87;64.98;100020.92;1779001;80;21050;-88
2022/05/21 10:54:29;;;;;;;10.95;6.10;;;;;;;26.91;67.31;100009.23;1778564;80;21226;-94
2022/05/21 10:57:21;;;;;;;8.00;6.60;;;;;;;27.01;67.68;100017.95;1779212;80;21004;-88
2022/05/21 11:00:04;;;;;;;9.68;5.60;;;;;;;27.04;66.65;100022.29;1785071;80;21595;-87
2022/05/21 11:02:56;;;;;;;10.93;5.80;;;;;;;27.02;65.84;100004.89;1738487;81;21008;-87
2022/05/21 11:06:07;;;;;;;11.40;6.40;;;;;;;27.03;69.13;100007.34;1745578;81;21126;-87
2022/05/21 11:08:51;;;;;;;8.90;5.97;;;;;;;27.17;67.06;100001.69;1722062;82;21504;-86
2022/05/21 11:11:48;;;;;;;11.48;5.80;;;;;;;27.31;67.20;99996.85;1745711;81;21040;-86
2022/05/21 11:14:27;;;;;;;7.40;6.67;;;;;;;27.44;65.91;99989.08;1746962;81;21031;-88
2022/05/21 11:17:24;;;;;;;7.20;6.10;;;;;;;27.61;65.33;99999.22;1742662;81;21544;-88
2022/05/21 11:20:23;;;;;;;9.13;6.85;;;;;;;27.70;60.14;99992.41;1741368;81;21209;-87
2022/05/21 11:23:10;;;;;;;10.43;6.78;;;;;;;27.78;64.94;99991.71;1745720;81;21171;-88
2022/05/21 11:25:52;;;;;;;8.50;6.40;;;;;;;28.00;63.36;99983.20;1749846;81;21020;-90
2022/05/21 11:28:37;;;;;;;5.87;5.35;;;;;;;28.08;63.92;99979.88;1743848;81;21051;-87
2022/05/21 11:31:16;;;;;;;7.15;5.87;;;;;;;27.82;57.40;99973.59;1750099;81;21557;-87
2022/05/21 11:39:21;;;;;;;6.08;5.47;;;;;;;27.01;61.14;99971.20;1748506;82;21025;-88
2022/05/21 11:42:12;;;;;;;8.70;5.62;;;;;;;26.83;60.78;99972.23;1748757;82;20998;-87
2022/05/21 11:44:58;;;;;;;7.65;5.72;;;;;;;26.75;63.36;99962.19;1723523;82;21062;-87
2022/05/21 11:47:43;;;;;;;7.72;5.55;;;;;;;26.69;60.19;99964.48;1722542;82;21563;-87
2022/05/21 11:50:16;;;;;;;7.28;6.03;;;;;;;26.54;59.58;99957.52;1746149;82;21199;-88
2022/05/21 11:52:55;;;;;;;7.97;6.05;;;;;;;26.35;60.82;99959.55;1746873;82;21556;-87
2022/05/21 11:55:27;;;;;;;7.15;6.03;;;;;;;26.19;61.56;99962.41;1746971;82;21054;-89
2022/05/21 11:58:07;;;;;;;6.28;5.55;;;;;;;26.11;61.91;99954.27;1748429;82;21077;-87
2022/05/21 12:00:44;;;;;;;6.50;5.90;;;;;;;26.06;62.58;99962.94;1751706;79;21015;-92
2022/05/21 12:03:15;;;;;;;11.22;6.15;;;;;;;26.04;63.88;99961.02;1791082;80;21168;-90
2022/05/21 12:05:53;;;;;;;9.15;6.20;;;;;;;26.08;65.35;99952.86;1793311;80;21000;-89
2022/05/21 12:08:35;;;;;;;10.80;6.62;;;;;;;26.25;62.99;99944.12;1793334;80;21047;-86
2022/05/21 12:11:05;;;;;;;8.00;6.55;;;;;;;26.59;65.69;99941.08;1793039;80;21564;-88
2022/05/21 12:13:40;;;;;;;10.40;6.33;;;;;;;26.96;63.02;99932.39;1793689;80;21065;-90
2022/05/21 12:16:26;;;;;;;8.75;6.30;;;;;;;27.27;66.46;99926.22;1793524;80;21151;-88
2022/05/21 12:19:00;;;;;;;7.97;6.53;;;;;;;27.56;63.39;99921.61;1793382;80;20972;-87
2022/05/21 12:21:40;;;;;;;8.78;6.03;;;;;;;27.81;61.98;99919.02;1791811;80;21032;-88